sensor_id;sensor_type;location;lat;lon;timestamp;P1;durP1;ratioP1;P2;durP2;ratioP2
6135;SDS011;24008;42.664;23.372;2023-01-25T00:01:03;11.97;;;7.10;;
6135;SDS011;24008;42.664;23.372;2023-01-25T00:03:32;13.40;;;7.30;;
6135;SDS011;24008;42.664;23.372;2023-01-25T00:05:58;12.67;;;7.33;;
6135;SDS011;24008;42.664;23.372;2023-01-25T00:08:26;11.50;;;7.57;;
6135;SDS011;24008;42.664;23.372;2023-01-25T00:10:52;13.07;;;7.97;;
6135;SDS011;24008;42.664;23.372;2023-01-25T00:13:19;13.87;;;7.73;;
6135;SDS011;24008;42.664;23.372;2023-01-25T00:15:46;13.57;;;7.97;;
6135;SDS011;24008;42.664;23.372;2023-01-25T00:18:13;14.33;;;7.77;;
6135;SDS011;24008;42.664;23.372;2023-01-25T00:20:41;10.80;;;7.20;;
6135;SDS011;24008;42.664;23.372;2023-01-25T00:23:07;13.73;;;7.73;;
6135;SDS011;24008;42.664;23.372;2023-01-25T00:25:34;12.37;;;7.60;;
6135;SDS011;24008;42.664;23.372;2023-01-25T00:28:01;12.13;;;7.67;;
6135;SDS011;24008;42.664;23.372;2023-01-25T00:30:27;12.93;;;8.10;;
6135;SDS011;24008;42.664;23.372;2023-01-25T00:32:57;13.97;;;7.70;;
6135;SDS011;24008;42.664;23.372;2023-01-25T00:35:31;13.70;;;7.47;;
6135;SDS011;24008;42.664;23.372;2023-01-25T00:38:02;13.13;;;7.27;;
6135;SDS011;24008;42.664;23.372;2023-01-25T00:40:47;12.53;;;7.47;;
6135;SDS011;24008;42.664;23.372;2023-01-25T00:43:14;10.53;;;6.63;;
6135;SDS011;24008;42.664;23.372;2023-01-25T00:45:41;12.30;;;7.60;;
6135;SDS011;24008;42.664;23.372;2023-01-25T00:48:07;13.17;;;7.30;;
6135;SDS011;24008;42.664;23.372;2023-01-25T00:50:35;10.70;;;6.37;;
6135;SDS011;24008;42.664;23.372;2023-01-25T00:53:05;9.33;;;5.13;;
6135;SDS011;24008;42.664;23.372;2023-01-25T00:55:32;9.60;;;5.40;;
6135;SDS011;24008;42.664;23.372;2023-01-25T00:57:59;10.13;;;5.37;;
6135;SDS011;24008;42.664;23.372;2023-01-25T01:00:26;9.80;;;4.90;;
6135;SDS011;24008;42.664;23.372;2023-01-25T01:02:53;8.73;;;5.30;;
6135;SDS011;24008;42.664;23.372;2023-01-25T01:05:20;9.33;;;4.80;;
6135;SDS011;24008;42.664;23.372;2023-01-25T01:07:47;9.10;;;5.30;;
6135;SDS011;24008;42.664;23.372;2023-01-25T01:10:16;9.03;;;4.80;;
6135;SDS011;24008;42.664;23.372;2023-01-25T01:12:43;9.13;;;5.13;;
6135;SDS011;24008;42.664;23.372;2023-01-25T01:15:09;9.10;;;5.00;;
6135;SDS011;24008;42.664;23.372;2023-01-25T01:17:36;9.13;;;5.17;;
6135;SDS011;24008;42.664;23.372;2023-01-25T01:20:03;10.23;;;5.10;;
6135;SDS011;24008;42.664;23.372;2023-01-25T01:22:30;9.37;;;5.67;;
6135;SDS011;24008;42.664;23.372;2023-01-25T01:24:57;8.33;;;5.30;;
6135;SDS011;24008;42.664;23.372;2023-01-25T01:27:25;7.80;;;4.77;;
6135;SDS011;24008;42.664;23.372;2023-01-25T01:29:52;7.07;;;4.80;;
6135;SDS011;24008;42.664;23.372;2023-01-25T01:32:19;8.53;;;5.07;;
6135;SDS011;24008;42.664;23.372;2023-01-25T01:34:45;8.17;;;5.17;;
6135;SDS011;24008;42.664;23.372;2023-01-25T01:37:12;7.67;;;4.63;;
6135;SDS011;24008;42.664;23.372;2023-01-25T01:39:39;7.73;;;4.77;;
6135;SDS011;24008;42.664;23.372;2023-01-25T01:42:06;7.03;;;4.53;;
6135;SDS011;24008;42.664;23.372;2023-01-25T01:44:44;7.83;;;4.43;;
6135;SDS011;24008;42.664;23.372;2023-01-25T01:47:14;9.10;;;5.27;;
6135;SDS011;24008;42.664;23.372;2023-01-25T01:49:46;7.53;;;5.27;;
6135;SDS011;24008;42.664;23.372;2023-01-25T01:52:19;9.57;;;5.33;;
6135;SDS011;24008;42.664;23.372;2023-01-25T01:54:51;10.83;;;5.17;;
6135;SDS011;24008;42.664;23.372;2023-01-25T01:57:22;8.77;;;5.77;;
6135;SDS011;24008;42.664;23.372;2023-01-25T01:59:55;12.23;;;5.97;;
6135;SDS011;24008;42.664;23.372;2023-01-25T02:02:25;11.73;;;5.77;;
6135;SDS011;24008;42.664;23.372;2023-01-25T02:04:52;9.43;;;5.10;;
6135;SDS011;24008;42.664;23.372;2023-01-25T02:07:29;10.93;;;4.93;;
6135;SDS011;24008;42.664;23.372;2023-01-25T02:09:58;11.60;;;4.87;;
6135;SDS011;24008;42.664;23.372;2023-01-25T02:12:26;9.13;;;4.47;;
6135;SDS011;24008;42.664;23.372;2023-01-25T02:14:55;7.13;;;4.50;;
6135;SDS011;24008;42.664;23.372;2023-01-25T02:17:23;6.67;;;4.27;;
6135;SDS011;24008;42.664;23.372;2023-01-25T02:19:53;6.37;;;3.87;;
6135;SDS011;24008;42.664;23.372;2023-01-25T02:22:28;8.83;;;4.43;;
6135;SDS011;24008;42.664;23.372;2023-01-25T02:25:04;9.70;;;4.33;;
6135;SDS011;24008;42.664;23.372;2023-01-25T02:27:32;10.90;;;4.60;;
6135;SDS011;24008;42.664;23.372;2023-01-25T02:30:03;11.27;;;4.87;;
6135;SDS011;24008;42.664;23.372;2023-01-25T02:32:31;13.27;;;4.90;;
6135;SDS011;24008;42.664;23.372;2023-01-25T02:34:58;12.00;;;4.63;;
6135;SDS011;24008;42.664;23.372;2023-01-25T02:37:25;11.00;;;5.10;;
6135;SDS011;24008;42.664;23.372;2023-01-25T02:39:52;10.80;;;4.87;;
6135;SDS011;24008;42.664;23.372;2023-01-25T02:42:20;9.60;;;4.47;;
6135;SDS011;24008;42.664;23.372;2023-01-25T02:44:47;9.17;;;4.13;;
6135;SDS011;24008;42.664;23.372;2023-01-25T02:47:15;7.37;;;4.50;;
6135;SDS011;24008;42.664;23.372;2023-01-25T02:49:42;8.87;;;4.60;;
6135;SDS011;24008;42.664;23.372;2023-01-25T02:52:09;8.53;;;4.47;;
6135;SDS011;24008;42.664;23.372;2023-01-25T02:54:35;9.40;;;4.73;;
6135;SDS011;24008;42.664;23.372;2023-01-25T02:57:02;10.13;;;4.43;;
6135;SDS011;24008;42.664;23.372;2023-01-25T02:59:30;9.17;;;4.73;;
6135;SDS011;24008;42.664;23.372;2023-01-25T03:01:57;10.27;;;5.10;;
6135;SDS011;24008;42.664;23.372;2023-01-25T03:04:24;8.30;;;4.53;;
6135;SDS011;24008;42.664;23.372;2023-01-25T03:06:50;8.03;;;4.43;;
6135;SDS011;24008;42.664;23.372;2023-01-25T03:09:17;8.57;;;4.23;;
6135;SDS011;24008;42.664;23.372;2023-01-25T03:11:44;7.70;;;4.57;;
6135;SDS011;24008;42.664;23.372;2023-01-25T03:14:10;8.37;;;4.50;;
6135;SDS011;24008;42.664;23.372;2023-01-25T03:16:39;8.07;;;4.53;;
6135;SDS011;24008;42.664;23.372;2023-01-25T03:19:05;6.30;;;4.10;;
6135;SDS011;24008;42.664;23.372;2023-01-25T03:21:32;7.53;;;4.33;;
6135;SDS011;24008;42.664;23.372;2023-01-25T03:23:59;6.23;;;4.03;;
6135;SDS011;24008;42.664;23.372;2023-01-25T03:26:27;7.37;;;4.27;;
6135;SDS011;24008;42.664;23.372;2023-01-25T03:28:54;6.07;;;4.17;;
6135;SDS011;24008;42.664;23.372;2023-01-25T03:31:21;6.10;;;4.30;;
6135;SDS011;24008;42.664;23.372;2023-01-25T03:33:50;5.43;;;3.87;;
6135;SDS011;24008;42.664;23.372;2023-01-25T03:36:17;5.90;;;4.10;;
6135;SDS011;24008;42.664;23.372;2023-01-25T03:38:44;7.03;;;4.30;;
6135;SDS011;24008;42.664;23.372;2023-01-25T03:41:10;5.97;;;3.57;;
6135;SDS011;24008;42.664;23.372;2023-01-25T03:43:39;7.97;;;4.53;;
6135;SDS011;24008;42.664;23.372;2023-01-25T03:46:05;8.27;;;4.40;;
6135;SDS011;24008;42.664;23.372;2023-01-25T03:48:32;6.50;;;4.37;;
6135;SDS011;24008;42.664;23.372;2023-01-25T03:51:00;6.90;;;4.40;;
6135;SDS011;24008;42.664;23.372;2023-01-25T03:53:27;6.80;;;4.20;;
6135;SDS011;24008;42.664;23.372;2023-01-25T03:55:56;8.60;;;4.73;;
6135;SDS011;24008;42.664;23.372;2023-01-25T03:58:23;7.07;;;4.37;;
6135;SDS011;24008;42.664;23.372;2023-01-25T04:00:53;7.70;;;4.70;;
6135;SDS011;24008;42.664;23.372;2023-01-25T04:03:20;6.53;;;4.47;;
6135;SDS011;24008;42.664;23.372;2023-01-25T04:05:47;7.60;;;4.50;;
6135;SDS011;24008;42.664;23.372;2023-01-25T04:08:15;6.20;;;3.87;;
6135;SDS011;24008;42.664;23.372;2023-01-25T04:10:42;7.97;;;4.50;;
6135;SDS011;24008;42.664;23.372;2023-01-25T04:13:09;7.20;;;4.37;;
6135;SDS011;24008;42.664;23.372;2023-01-25T04:15:36;7.47;;;4.30;;
6135;SDS011;24008;42.664;23.372;2023-01-25T04:18:03;8.70;;;4.67;;
6135;SDS011;24008;42.664;23.372;2023-01-25T04:20:30;6.80;;;4.13;;
6135;SDS011;24008;42.664;23.372;2023-01-25T04:22:56;8.03;;;4.30;;
6135;SDS011;24008;42.664;23.372;2023-01-25T04:25:25;11.87;;;5.57;;
6135;SDS011;24008;42.664;23.372;2023-01-25T04:27:52;9.50;;;5.40;;
6135;SDS011;24008;42.664;23.372;2023-01-25T04:30:19;11.77;;;5.77;;
6135;SDS011;24008;42.664;23.372;2023-01-25T04:32:45;14.43;;;6.20;;
6135;SDS011;24008;42.664;23.372;2023-01-25T04:35:12;11.73;;;5.90;;
6135;SDS011;24008;42.664;23.372;2023-01-25T04:37:39;9.63;;;6.03;;
6135;SDS011;24008;42.664;23.372;2023-01-25T04:40:06;10.37;;;5.57;;
6135;SDS011;24008;42.664;23.372;2023-01-25T04:42:34;9.20;;;5.23;;
6135;SDS011;24008;42.664;23.372;2023-01-25T04:45:01;7.50;;;4.60;;
6135;SDS011;24008;42.664;23.372;2023-01-25T04:47:28;5.83;;;3.90;;
6135;SDS011;24008;42.664;23.372;2023-01-25T04:49:55;7.23;;;3.73;;
6135;SDS011;24008;42.664;23.372;2023-01-25T04:52:21;5.70;;;3.63;;
6135;SDS011;24008;42.664;23.372;2023-01-25T04:54:48;6.13;;;3.80;;
6135;SDS011;24008;42.664;23.372;2023-01-25T04:57:15;6.03;;;3.77;;
6135;SDS011;24008;42.664;23.372;2023-01-25T04:59:43;4.97;;;3.83;;
6135;SDS011;24008;42.664;23.372;2023-01-25T05:02:10;5.00;;;2.93;;
6135;SDS011;24008;42.664;23.372;2023-01-25T05:04:36;12.00;;;3.63;;
6135;SDS011;24008;42.664;23.372;2023-01-25T05:07:03;4.57;;;3.33;;
6135;SDS011;24008;42.664;23.372;2023-01-25T05:09:30;4.60;;;3.50;;
6135;SDS011;24008;42.664;23.372;2023-01-25T05:11:57;6.47;;;4.13;;
6135;SDS011;24008;42.664;23.372;2023-01-25T05:14:23;6.80;;;4.40;;
6135;SDS011;24008;42.664;23.372;2023-01-25T05:16:52;7.27;;;4.50;;
6135;SDS011;24008;42.664;23.372;2023-01-25T05:19:18;9.07;;;5.23;;
6135;SDS011;24008;42.664;23.372;2023-01-25T05:21:45;10.30;;;5.30;;
6135;SDS011;24008;42.664;23.372;2023-01-25T05:24:24;9.07;;;5.50;;
6135;SDS011;24008;42.664;23.372;2023-01-25T05:26:52;9.10;;;5.83;;
6135;SDS011;24008;42.664;23.372;2023-01-25T05:29:28;13.17;;;6.20;;
6135;SDS011;24008;42.664;23.372;2023-01-25T05:31:57;12.63;;;5.23;;
6135;SDS011;24008;42.664;23.372;2023-01-25T05:34:24;8.57;;;5.17;;
6135;SDS011;24008;42.664;23.372;2023-01-25T05:36:51;10.13;;;5.10;;
6135;SDS011;24008;42.664;23.372;2023-01-25T05:39:18;7.13;;;4.60;;
6135;SDS011;24008;42.664;23.372;2023-01-25T05:41:45;7.80;;;4.27;;
6135;SDS011;24008;42.664;23.372;2023-01-25T05:44:12;8.40;;;4.53;;
6135;SDS011;24008;42.664;23.372;2023-01-25T05:46:39;9.37;;;5.33;;
6135;SDS011;24008;42.664;23.372;2023-01-25T05:49:07;6.77;;;4.33;;
6135;SDS011;24008;42.664;23.372;2023-01-25T05:51:34;8.83;;;4.50;;
6135;SDS011;24008;42.664;23.372;2023-01-25T05:54:02;7.17;;;4.17;;
6135;SDS011;24008;42.664;23.372;2023-01-25T05:56:29;8.33;;;4.97;;
6135;SDS011;24008;42.664;23.372;2023-01-25T05:58:57;8.20;;;5.33;;
6135;SDS011;24008;42.664;23.372;2023-01-25T06:01:26;6.07;;;4.27;;
6135;SDS011;24008;42.664;23.372;2023-01-25T06:03:53;11.23;;;6.00;;
6135;SDS011;24008;42.664;23.372;2023-01-25T06:06:22;8.07;;;4.63;;
6135;SDS011;24008;42.664;23.372;2023-01-25T06:08:49;6.53;;;4.43;;
6135;SDS011;24008;42.664;23.372;2023-01-25T06:11:16;8.13;;;4.60;;
6135;SDS011;24008;42.664;23.372;2023-01-25T06:13:44;7.53;;;4.43;;
6135;SDS011;24008;42.664;23.372;2023-01-25T06:16:12;8.47;;;4.77;;
6135;SDS011;24008;42.664;23.372;2023-01-25T06:18:39;8.20;;;5.10;;
6135;SDS011;24008;42.664;23.372;2023-01-25T06:21:06;9.40;;;4.93;;
6135;SDS011;24008;42.664;23.372;2023-01-25T06:23:34;7.33;;;4.87;;
6135;SDS011;24008;42.664;23.372;2023-01-25T06:26:02;7.73;;;5.20;;
6135;SDS011;24008;42.664;23.372;2023-01-25T06:28:30;8.27;;;5.40;;
6135;SDS011;24008;42.664;23.372;2023-01-25T06:31:02;6.37;;;4.67;;
6135;SDS011;24008;42.664;23.372;2023-01-25T06:33:29;7.60;;;4.23;;
6135;SDS011;24008;42.664;23.372;2023-01-25T06:35:58;6.03;;;4.13;;
6135;SDS011;24008;42.664;23.372;2023-01-25T06:38:25;9.40;;;4.53;;
6135;SDS011;24008;42.664;23.372;2023-01-25T06:40:53;7.93;;;4.60;;
6135;SDS011;24008;42.664;23.372;2023-01-25T06:43:24;7.60;;;4.93;;
6135;SDS011;24008;42.664;23.372;2023-01-25T06:45:51;10.00;;;5.00;;
6135;SDS011;24008;42.664;23.372;2023-01-25T06:48:17;8.50;;;5.10;;
6135;SDS011;24008;42.664;23.372;2023-01-25T06:50:44;8.60;;;5.33;;
6135;SDS011;24008;42.664;23.372;2023-01-25T06:53:11;6.93;;;4.70;;
6135;SDS011;24008;42.664;23.372;2023-01-25T06:55:38;6.67;;;4.20;;
6135;SDS011;24008;42.664;23.372;2023-01-25T06:58:06;7.13;;;4.50;;
6135;SDS011;24008;42.664;23.372;2023-01-25T07:00:32;5.80;;;4.07;;
6135;SDS011;24008;42.664;23.372;2023-01-25T07:02:59;7.57;;;3.77;;
6135;SDS011;24008;42.664;23.372;2023-01-25T07:05:26;6.67;;;4.33;;
6135;SDS011;24008;42.664;23.372;2023-01-25T07:07:53;5.00;;;3.87;;
6135;SDS011;24008;42.664;23.372;2023-01-25T07:10:19;8.67;;;4.90;;
6135;SDS011;24008;42.664;23.372;2023-01-25T07:12:46;7.93;;;5.20;;
6135;SDS011;24008;42.664;23.372;2023-01-25T07:15:14;7.53;;;5.03;;
6135;SDS011;24008;42.664;23.372;2023-01-25T07:17:41;8.07;;;5.47;;
6135;SDS011;24008;42.664;23.372;2023-01-25T07:20:08;10.87;;;5.83;;
6135;SDS011;24008;42.664;23.372;2023-01-25T07:22:35;8.97;;;5.60;;
6135;SDS011;24008;42.664;23.372;2023-01-25T07:25:02;8.93;;;5.33;;
6135;SDS011;24008;42.664;23.372;2023-01-25T07:27:31;12.07;;;6.57;;
6135;SDS011;24008;42.664;23.372;2023-01-25T07:29:59;10.33;;;6.73;;
6135;SDS011;24008;42.664;23.372;2023-01-25T07:32:27;10.93;;;6.43;;
6135;SDS011;24008;42.664;23.372;2023-01-25T07:34:54;11.53;;;6.70;;
6135;SDS011;24008;42.664;23.372;2023-01-25T07:37:20;12.37;;;7.20;;
6135;SDS011;24008;42.664;23.372;2023-01-25T07:39:47;12.00;;;7.50;;
6135;SDS011;24008;42.664;23.372;2023-01-25T07:42:14;12.10;;;7.53;;
6135;SDS011;24008;42.664;23.372;2023-01-25T07:44:41;12.50;;;7.83;;
6135;SDS011;24008;42.664;23.372;2023-01-25T07:47:08;13.87;;;8.60;;
6135;SDS011;24008;42.664;23.372;2023-01-25T07:49:36;13.63;;;8.47;;
6135;SDS011;24008;42.664;23.372;2023-01-25T07:52:03;14.87;;;8.30;;
6135;SDS011;24008;42.664;23.372;2023-01-25T07:54:30;14.43;;;8.37;;
6135;SDS011;24008;42.664;23.372;2023-01-25T07:56:59;17.20;;;9.00;;
6135;SDS011;24008;42.664;23.372;2023-01-25T07:59:26;14.80;;;9.30;;
6135;SDS011;24008;42.664;23.372;2023-01-25T08:01:55;15.33;;;9.53;;
6135;SDS011;24008;42.664;23.372;2023-01-25T08:04:22;20.57;;;9.63;;
6135;SDS011;24008;42.664;23.372;2023-01-25T08:06:50;16.63;;;8.73;;
6135;SDS011;24008;42.664;23.372;2023-01-25T08:09:17;15.53;;;9.53;;
6135;SDS011;24008;42.664;23.372;2023-01-25T08:11:44;14.10;;;8.20;;
6135;SDS011;24008;42.664;23.372;2023-01-25T08:14:13;16.03;;;9.97;;
6135;SDS011;24008;42.664;23.372;2023-01-25T08:16:40;15.27;;;9.43;;
6135;SDS011;24008;42.664;23.372;2023-01-25T08:19:08;16.47;;;10.40;;
6135;SDS011;24008;42.664;23.372;2023-01-25T08:21:35;16.20;;;8.97;;
6135;SDS011;24008;42.664;23.372;2023-01-25T08:24:06;15.23;;;9.83;;
6135;SDS011;24008;42.664;23.372;2023-01-25T08:26:34;16.37;;;9.50;;
6135;SDS011;24008;42.664;23.372;2023-01-25T08:29:02;16.30;;;10.20;;
6135;SDS011;24008;42.664;23.372;2023-01-25T08:31:29;15.43;;;9.97;;
6135;SDS011;24008;42.664;23.372;2023-01-25T08:33:57;16.43;;;10.63;;
6135;SDS011;24008;42.664;23.372;2023-01-25T08:36:28;14.53;;;8.73;;
6135;SDS011;24008;42.664;23.372;2023-01-25T08:38:55;16.60;;;10.50;;
6135;SDS011;24008;42.664;23.372;2023-01-25T08:41:25;18.03;;;9.87;;
6135;SDS011;24008;42.664;23.372;2023-01-25T08:43:53;19.23;;;11.80;;
6135;SDS011;24008;42.664;23.372;2023-01-25T08:46:21;18.10;;;10.67;;
6135;SDS011;24008;42.664;23.372;2023-01-25T08:48:51;15.60;;;10.20;;
6135;SDS011;24008;42.664;23.372;2023-01-25T08:51:19;18.13;;;11.63;;
6135;SDS011;24008;42.664;23.372;2023-01-25T08:53:46;17.00;;;11.60;;
6135;SDS011;24008;42.664;23.372;2023-01-25T08:56:14;16.53;;;10.23;;
6135;SDS011;24008;42.664;23.372;2023-01-25T08:58:43;13.87;;;10.00;;
6135;SDS011;24008;42.664;23.372;2023-01-25T09:01:12;14.10;;;8.77;;
6135;SDS011;24008;42.664;23.372;2023-01-25T09:03:44;16.00;;;11.00;;
6135;SDS011;24008;42.664;23.372;2023-01-25T09:06:15;16.27;;;10.57;;
6135;SDS011;24008;42.664;23.372;2023-01-25T09:08:43;16.07;;;10.83;;
6135;SDS011;24008;42.664;23.372;2023-01-25T09:11:11;17.37;;;11.43;;
6135;SDS011;24008;42.664;23.372;2023-01-25T09:13:39;16.23;;;10.73;;
6135;SDS011;24008;42.664;23.372;2023-01-25T09:16:09;17.33;;;10.47;;
6135;SDS011;24008;42.664;23.372;2023-01-25T09:18:38;15.37;;;10.90;;
6135;SDS011;24008;42.664;23.372;2023-01-25T09:21:06;17.73;;;11.40;;
6135;SDS011;24008;42.664;23.372;2023-01-25T09:23:34;17.93;;;10.67;;
6135;SDS011;24008;42.664;23.372;2023-01-25T09:26:03;16.97;;;10.70;;
6135;SDS011;24008;42.664;23.372;2023-01-25T09:28:30;15.30;;;10.37;;
6135;SDS011;24008;42.664;23.372;2023-01-25T09:30:58;17.13;;;10.47;;
6135;SDS011;24008;42.664;23.372;2023-01-25T09:33:28;16.33;;;10.80;;
6135;SDS011;24008;42.664;23.372;2023-01-25T09:35:57;13.23;;;9.40;;
6135;SDS011;24008;42.664;23.372;2023-01-25T09:38:24;14.33;;;9.53;;
6135;SDS011;24008;42.664;23.372;2023-01-25T09:40:54;15.83;;;10.57;;
6135;SDS011;24008;42.664;23.372;2023-01-25T09:43:33;15.37;;;10.03;;
6135;SDS011;24008;42.664;23.372;2023-01-25T09:46:13;16.53;;;10.90;;
6135;SDS011;24008;42.664;23.372;2023-01-25T09:48:50;11.93;;;8.00;;
6135;SDS011;24008;42.664;23.372;2023-01-25T09:51:25;14.37;;;9.33;;
6135;SDS011;24008;42.664;23.372;2023-01-25T09:53:55;12.00;;;8.83;;
6135;SDS011;24008;42.664;23.372;2023-01-25T09:56:24;13.87;;;9.33;;
6135;SDS011;24008;42.664;23.372;2023-01-25T09:58:54;14.03;;;9.37;;
6135;SDS011;24008;42.664;23.372;2023-01-25T10:01:24;12.03;;;8.50;;
6135;SDS011;24008;42.664;23.372;2023-01-25T10:03:58;12.27;;;7.77;;
6135;SDS011;24008;42.664;23.372;2023-01-25T10:06:35;12.77;;;8.50;;
6135;SDS011;24008;42.664;23.372;2023-01-25T10:09:06;9.97;;;8.00;;
6135;SDS011;24008;42.664;23.372;2023-01-25T10:11:43;13.13;;;8.43;;
6135;SDS011;24008;42.664;23.372;2023-01-25T10:14:11;9.83;;;7.10;;
6135;SDS011;24008;42.664;23.372;2023-01-25T10:16:43;10.90;;;7.60;;
6135;SDS011;24008;42.664;23.372;2023-01-25T10:19:22;7.63;;;6.53;;
6135;SDS011;24008;42.664;23.372;2023-01-25T10:21:54;9.87;;;5.63;;
6135;SDS011;24008;42.664;23.372;2023-01-25T10:27:25;10.60;;;6.60;;
6135;SDS011;24008;42.664;23.372;2023-01-25T10:29:59;8.67;;;6.63;;
6135;SDS011;24008;42.664;23.372;2023-01-25T10:32:46;9.00;;;6.67;;
6135;SDS011;24008;42.664;23.372;2023-01-25T10:35:19;9.67;;;6.40;;
6135;SDS011;24008;42.664;23.372;2023-01-25T10:37:48;8.90;;;6.50;;
6135;SDS011;24008;42.664;23.372;2023-01-25T10:40:17;8.00;;;5.20;;
6135;SDS011;24008;42.664;23.372;2023-01-25T10:42:50;9.50;;;6.97;;
6135;SDS011;24008;42.664;23.372;2023-01-25T10:45:21;7.77;;;5.70;;
6135;SDS011;24008;42.664;23.372;2023-01-25T10:47:49;5.70;;;4.83;;
6135;SDS011;24008;42.664;23.372;2023-01-25T10:50:42;7.70;;;4.50;;
6135;SDS011;24008;42.664;23.372;2023-01-25T10:53:25;7.37;;;5.37;;
6135;SDS011;24008;42.664;23.372;2023-01-25T10:55:57;9.43;;;6.07;;
6135;SDS011;24008;42.664;23.372;2023-01-25T10:58:31;10.93;;;7.37;;
6135;SDS011;24008;42.664;23.372;2023-01-25T11:01:00;10.60;;;7.00;;
6135;SDS011;24008;42.664;23.372;2023-01-25T11:03:34;10.60;;;6.70;;
6135;SDS011;24008;42.664;23.372;2023-01-25T11:06:05;10.50;;;6.47;;
6135;SDS011;24008;42.664;23.372;2023-01-25T11:08:33;7.47;;;5.77;;
6135;SDS011;24008;42.664;23.372;2023-01-25T11:13:49;8.50;;;6.07;;
6135;SDS011;24008;42.664;23.372;2023-01-25T11:19:23;8.53;;;6.70;;
6135;SDS011;24008;42.664;23.372;2023-01-25T11:21:53;9.40;;;5.97;;
6135;SDS011;24008;42.664;23.372;2023-01-25T11:24:24;9.27;;;6.60;;
6135;SDS011;24008;42.664;23.372;2023-01-25T11:29:39;10.20;;;7.00;;
6135;SDS011;24008;42.664;23.372;2023-01-25T11:32:12;9.80;;;7.10;;
6135;SDS011;24008;42.664;23.372;2023-01-25T11:34:45;12.07;;;7.30;;
6135;SDS011;24008;42.664;23.372;2023-01-25T11:37:27;9.60;;;6.77;;
6135;SDS011;24008;42.664;23.372;2023-01-25T11:40:09;11.77;;;6.10;;
6135;SDS011;24008;42.664;23.372;2023-01-25T11:42:47;11.30;;;6.70;;
6135;SDS011;24008;42.664;23.372;2023-01-25T11:48:42;7.03;;;5.20;;
6135;SDS011;24008;42.664;23.372;2023-01-25T11:51:28;9.03;;;5.87;;
6135;SDS011;24008;42.664;23.372;2023-01-25T11:54:04;9.87;;;6.20;;
6135;SDS011;24008;42.664;23.372;2023-01-25T11:56:49;8.83;;;5.97;;
6135;SDS011;24008;42.664;23.372;2023-01-25T11:59:29;11.23;;;6.57;;
6135;SDS011;24008;42.664;23.372;2023-01-25T12:02:14;7.33;;;5.07;;
6135;SDS011;24008;42.664;23.372;2023-01-25T12:05:02;10.27;;;7.13;;
6135;SDS011;24008;42.664;23.372;2023-01-25T12:07:47;10.20;;;6.63;;
6135;SDS011;24008;42.664;23.372;2023-01-25T12:10:24;13.30;;;7.67;;
6135;SDS011;24008;42.664;23.372;2023-01-25T12:12:57;9.07;;;6.27;;
6135;SDS011;24008;42.664;23.372;2023-01-25T12:15:40;11.00;;;7.23;;
6135;SDS011;24008;42.664;23.372;2023-01-25T12:18:28;9.67;;;7.13;;
6135;SDS011;24008;42.664;23.372;2023-01-25T12:21:17;11.27;;;7.63;;
6135;SDS011;24008;42.664;23.372;2023-01-25T12:24:02;11.67;;;7.90;;
6135;SDS011;24008;42.664;23.372;2023-01-25T12:26:43;11.13;;;7.60;;
6135;SDS011;24008;42.664;23.372;2023-01-25T12:29:23;11.63;;;7.93;;
6135;SDS011;24008;42.664;23.372;2023-01-25T12:31:53;9.73;;;6.43;;
6135;SDS011;24008;42.664;23.372;2023-01-25T12:34:25;10.87;;;7.33;;
6135;SDS011;24008;42.664;23.372;2023-01-25T12:36:59;15.27;;;7.37;;
6135;SDS011;24008;42.664;23.372;2023-01-25T12:39:32;11.10;;;7.83;;
6135;SDS011;24008;42.664;23.372;2023-01-25T12:42:06;10.77;;;7.40;;
6135;SDS011;24008;42.664;23.372;2023-01-25T12:44:42;12.13;;;8.10;;
6135;SDS011;24008;42.664;23.372;2023-01-25T12:47:13;13.13;;;7.73;;
6135;SDS011;24008;42.664;23.372;2023-01-25T12:49:46;9.57;;;6.80;;
6135;SDS011;24008;42.664;23.372;2023-01-25T12:52:19;8.77;;;6.53;;
6135;SDS011;24008;42.664;23.372;2023-01-25T12:54:50;15.80;;;7.83;;
6135;SDS011;24008;42.664;23.372;2023-01-25T12:57:23;11.87;;;8.00;;
6135;SDS011;24008;42.664;23.372;2023-01-25T12:59:57;16.17;;;8.17;;
6135;SDS011;24008;42.664;23.372;2023-01-25T13:02:40;7.97;;;6.07;;
6135;SDS011;24008;42.664;23.372;2023-01-25T13:05:20;7.27;;;5.90;;
6135;SDS011;24008;42.664;23.372;2023-01-25T13:07:52;13.37;;;7.70;;
6135;SDS011;24008;42.664;23.372;2023-01-25T13:10:27;11.80;;;7.87;;
6135;SDS011;24008;42.664;23.372;2023-01-25T13:13:02;12.67;;;8.37;;
6135;SDS011;24008;42.664;23.372;2023-01-25T13:15:45;10.60;;;7.00;;
6135;SDS011;24008;42.664;23.372;2023-01-25T13:21:02;10.07;;;6.77;;
6135;SDS011;24008;42.664;23.372;2023-01-25T13:23:33;10.77;;;6.97;;
6135;SDS011;24008;42.664;23.372;2023-01-25T13:29:12;12.57;;;8.17;;
6135;SDS011;24008;42.664;23.372;2023-01-25T13:35:28;10.13;;;5.37;;
6135;SDS011;24008;42.664;23.372;2023-01-25T13:41:04;9.47;;;6.40;;
6135;SDS011;24008;42.664;23.372;2023-01-25T13:43:36;9.20;;;6.37;;
6135;SDS011;24008;42.664;23.372;2023-01-25T13:46:05;8.03;;;5.50;;
6135;SDS011;24008;42.664;23.372;2023-01-25T13:48:42;11.27;;;7.47;;
6135;SDS011;24008;42.664;23.372;2023-01-25T13:51:14;12.43;;;7.40;;
6135;SDS011;24008;42.664;23.372;2023-01-25T13:53:53;9.90;;;6.23;;
6135;SDS011;24008;42.664;23.372;2023-01-25T13:56:25;11.77;;;7.90;;
6135;SDS011;24008;42.664;23.372;2023-01-25T13:58:55;11.97;;;7.80;;
6135;SDS011;24008;42.664;23.372;2023-01-25T14:01:23;11.80;;;8.33;;
6135;SDS011;24008;42.664;23.372;2023-01-25T14:03:51;12.93;;;9.03;;
6135;SDS011;24008;42.664;23.372;2023-01-25T14:06:24;13.17;;;8.27;;
6135;SDS011;24008;42.664;23.372;2023-01-25T14:08:53;14.37;;;8.43;;
6135;SDS011;24008;42.664;23.372;2023-01-25T14:11:23;15.43;;;9.33;;
6135;SDS011;24008;42.664;23.372;2023-01-25T14:13:55;19.17;;;9.37;;
6135;SDS011;24008;42.664;23.372;2023-01-25T14:16:37;10.67;;;7.03;;
6135;SDS011;24008;42.664;23.372;2023-01-25T14:19:20;13.33;;;8.70;;
6135;SDS011;24008;42.664;23.372;2023-01-25T14:21:48;16.73;;;8.00;;
6135;SDS011;24008;42.664;23.372;2023-01-25T14:24:15;14.83;;;9.10;;
6135;SDS011;24008;42.664;23.372;2023-01-25T14:26:44;15.13;;;8.47;;
6135;SDS011;24008;42.664;23.372;2023-01-25T14:29:15;17.60;;;11.20;;
6135;SDS011;24008;42.664;23.372;2023-01-25T14:31:45;14.77;;;8.83;;
6135;SDS011;24008;42.664;23.372;2023-01-25T14:34:16;11.57;;;6.67;;
6135;SDS011;24008;42.664;23.372;2023-01-25T14:36:43;13.10;;;8.77;;
6135;SDS011;24008;42.664;23.372;2023-01-25T14:39:15;13.73;;;8.23;;
6135;SDS011;24008;42.664;23.372;2023-01-25T14:41:54;16.33;;;8.83;;
6135;SDS011;24008;42.664;23.372;2023-01-25T14:44:22;14.87;;;9.17;;
6135;SDS011;24008;42.664;23.372;2023-01-25T14:46:54;16.10;;;9.93;;
6135;SDS011;24008;42.664;23.372;2023-01-25T14:49:48;9.93;;;6.47;;
6135;SDS011;24008;42.664;23.372;2023-01-25T14:52:15;15.43;;;8.87;;
6135;SDS011;24008;42.664;23.372;2023-01-25T14:54:46;15.03;;;9.03;;
6135;SDS011;24008;42.664;23.372;2023-01-25T14:57:29;14.67;;;8.87;;
6135;SDS011;24008;42.664;23.372;2023-01-25T14:59:58;14.17;;;7.33;;
6135;SDS011;24008;42.664;23.372;2023-01-25T15:02:31;16.77;;;9.43;;
6135;SDS011;24008;42.664;23.372;2023-01-25T15:05:04;18.87;;;10.30;;
6135;SDS011;24008;42.664;23.372;2023-01-25T15:07:33;14.17;;;7.43;;
6135;SDS011;24008;42.664;23.372;2023-01-25T15:10:14;15.20;;;9.00;;
6135;SDS011;24008;42.664;23.372;2023-01-25T15:12:54;15.70;;;8.10;;
6135;SDS011;24008;42.664;23.372;2023-01-25T15:15:23;14.23;;;8.00;;
6135;SDS011;24008;42.664;23.372;2023-01-25T15:17:53;11.73;;;6.37;;
6135;SDS011;24008;42.664;23.372;2023-01-25T15:20:28;13.50;;;8.23;;
6135;SDS011;24008;42.664;23.372;2023-01-25T15:22:58;14.27;;;7.47;;
6135;SDS011;24008;42.664;23.372;2023-01-25T15:25:26;9.37;;;5.73;;